createdAt,value
2022-09-28T00:00:20.053Z,98559.97
2022-09-28T00:02:47.331Z,98561.69
2022-09-28T00:05:14.508Z,98552.84
2022-09-28T00:07:42.065Z,98544.69
2022-09-28T00:10:09.387Z,98544.91
2022-09-28T00:12:36.130Z,98542.22
2022-09-28T00:15:03.234Z,98544.06
2022-09-28T00:17:30.245Z,98534.78
2022-09-28T00:19:58.029Z,98522.34
2022-09-28T00:22:24.756Z,98534.56
2022-09-28T00:24:51.836Z,98538.63
2022-09-28T00:27:18.579Z,98544.34
2022-09-28T00:29:45.268Z,98541.19
2022-09-28T00:32:13.746Z,98541.50
2022-09-28T00:34:43.249Z,98542.22
2022-09-28T00:37:10.076Z,98540.47
2022-09-28T00:39:38.347Z,98540.97
2022-09-28T00:42:10.934Z,98543.53
2022-09-28T00:44:46.569Z,98538.81
2022-09-28T00:47:15.535Z,98541.44
2022-09-28T00:49:48.601Z,98547.31
2022-09-28T00:52:17.062Z,98552.53
2022-09-28T00:54:44.063Z,98536.88
2022-09-28T00:57:10.743Z,98534.41
2022-09-28T00:59:37.437Z,98543.19
2022-09-28T01:02:05.237Z,98550.75
2022-09-28T01:04:31.994Z,98547.19
2022-09-28T01:06:59.226Z,98547.19
2022-09-28T01:09:26.438Z,98545.66
2022-09-28T01:11:53.145Z,98546.19
2022-09-28T01:14:20.742Z,98543.97
2022-09-28T01:16:47.731Z,98544.09
2022-09-28T01:19:15.278Z,98550.34
2022-09-28T01:21:51.530Z,98552.59
2022-09-28T01:24:37.247Z,98554.25
2022-09-28T01:27:05.956Z,98559.31
2022-09-28T01:29:39.141Z,98554.03
2022-09-28T01:32:24.956Z,98555.44
2022-09-28T01:34:54.662Z,98555.63
2022-09-28T01:37:21.905Z,98556.03
2022-09-28T01:39:49.085Z,98553.81
2022-09-28T01:42:20.800Z,98567.50
2022-09-28T01:44:47.759Z,98563.25
2022-09-28T01:47:15.530Z,98561.56
2022-09-28T01:49:44.220Z,98572.97
2022-09-28T01:52:12.539Z,98570.97
2022-09-28T01:54:39.444Z,98574.59
2022-09-28T01:57:09.699Z,98572.62
2022-09-28T01:59:36.949Z,98566.50
2022-09-28T02:02:05.211Z,98564.38
2022-09-28T02:04:35.230Z,98575.00
2022-09-28T02:07:02.989Z,98563.13
2022-09-28T02:09:36.115Z,98562.75
2022-09-28T02:12:05.373Z,98569.94
2022-09-28T02:14:32.423Z,98570.47
2022-09-28T02:17:01.222Z,98574.06
2022-09-28T02:19:29.268Z,98568.34
2022-09-28T02:21:59.603Z,98568.16
2022-09-28T02:24:32.462Z,98571.19
2022-09-28T02:27:00.314Z,98560.97
2022-09-28T02:29:31.044Z,98563.41
2022-09-28T02:31:57.849Z,98568.66
2022-09-28T02:34:24.784Z,98564.44
2022-09-28T02:36:51.864Z,98571.19
2022-09-28T02:39:19.281Z,98571.19
2022-09-28T02:42:00.579Z,98575.25
2022-09-28T02:44:27.609Z,98572.62
2022-09-28T02:47:04.230Z,98567.87
2022-09-28T02:49:39.675Z,98566.13
2022-09-28T02:52:06.324Z,98576.28
2022-09-28T02:54:43.962Z,98578.19
2022-09-28T02:57:46.167Z,98584.91
2022-09-28T03:00:20.051Z,98583.37
2022-09-28T03:02:59.890Z,98592.75
2022-09-28T03:05:32.245Z,98597.44
2022-09-28T03:07:59.907Z,98608.91
2022-09-28T03:10:37.609Z,98607.22
2022-09-28T03:13:04.730Z,98617.94
2022-09-28T03:15:32.736Z,98622.97
2022-09-28T03:17:59.827Z,98609.88
2022-09-28T03:20:27.052Z,98612.13
2022-09-28T03:23:19.779Z,98619.28
2022-09-28T03:25:40.983Z,98624.50
2022-09-28T03:28:08.281Z,98624.38
2022-09-28T03:30:36.009Z,98629.16
2022-09-28T03:33:03.205Z,98620.31
2022-09-28T03:35:30.648Z,98613.34
2022-09-28T03:37:57.334Z,98616.91
2022-09-28T03:40:24.661Z,98620.38
2022-09-28T03:42:52.316Z,98618.84
2022-09-28T03:45:19.843Z,98617.41
2022-09-28T03:47:48.726Z,98630.97
2022-09-28T03:50:18.262Z,98627.31
2022-09-28T03:52:44.975Z,98635.09
2022-09-28T03:55:11.751Z,98627.97
2022-09-28T03:57:38.799Z,98629.31
2022-09-28T04:00:06.159Z,98628.31
2022-09-28T04:02:40.276Z,98625.69
2022-09-28T04:05:07.565Z,98619.88
2022-09-28T04:07:34.387Z,98616.22
2022-09-28T04:10:01.136Z,98624.91
2022-09-28T04:12:28.120Z,98608.47
2022-09-28T04:14:54.828Z,98618.19
2022-09-28T04:17:21.576Z,98622.50
2022-09-28T04:19:49.112Z,98620.84
2022-09-28T04:22:16.287Z,98617.25
2022-09-28T04:24:43.654Z,98612.06
2022-09-28T04:27:29.427Z,98617.69
2022-09-28T04:29:56.244Z,98611.94
2022-09-28T04:32:23.269Z,98617.50
2022-09-28T04:34:51.902Z,98611.53
2022-09-28T04:37:18.914Z,98608.63
2022-09-28T04:39:48.351Z,98614.16
2022-09-28T04:42:16.640Z,98617.97
2022-09-28T04:44:43.382Z,98624.47
2022-09-28T04:47:10.348Z,98622.84
2022-09-28T04:49:38.476Z,98624.84
2022-09-28T04:52:06.093Z,98620.22
2022-09-28T04:54:34.226Z,98608.88
2022-09-28T04:57:01.759Z,98603.97
2022-09-28T04:59:28.487Z,98602.31
2022-09-28T05:01:55.568Z,98609.13
2022-09-28T05:04:25.961Z,98616.56
2022-09-28T05:06:53.937Z,98615.72
2022-09-28T05:09:20.905Z,98617.75
2022-09-28T05:11:52.276Z,98620.56
2022-09-28T05:14:21.953Z,98628.13
2022-09-28T05:16:49.064Z,98628.09
2022-09-28T05:19:17.393Z,98627.16
2022-09-28T05:21:44.733Z,98625.22
2022-09-28T05:24:11.889Z,98630.63
2022-09-28T05:26:39.805Z,98633.25
2022-09-28T05:29:06.607Z,98635.16
2022-09-28T05:31:34.696Z,98633.31
2022-09-28T05:34:02.569Z,98639.94
2022-09-28T05:36:30.981Z,98635.72
2022-09-28T05:38:58.654Z,98633.91
2022-09-28T05:41:25.404Z,98632.88
2022-09-28T05:43:52.634Z,98637.16
2022-09-28T05:46:21.865Z,98633.50
2022-09-28T05:48:48.886Z,98632.06
2022-09-28T05:51:15.649Z,98627.81
2022-09-28T05:53:45.055Z,98630.38
2022-09-28T05:56:12.019Z,98619.63
2022-09-28T05:58:43.072Z,98621.44
2022-09-28T06:01:10.667Z,98621.25
2022-09-28T06:03:37.904Z,98631.38
2022-09-28T06:06:04.595Z,98625.00
2022-09-28T06:08:32.854Z,98628.28
2022-09-28T06:11:01.389Z,98636.28
2022-09-28T06:13:28.688Z,98634.28
2022-09-28T06:15:56.240Z,98631.53
2022-09-28T06:18:23.405Z,98630.47
2022-09-28T06:20:51.422Z,98629.63
2022-09-28T06:23:19.242Z,98630.63
2022-09-28T06:25:46.456Z,98628.13
2022-09-28T06:28:16.606Z,98632.06
2022-09-28T06:30:43.588Z,98636.06
2022-09-28T06:33:13.084Z,98640.34
2022-09-28T06:35:40.799Z,98640.72
2022-09-28T06:38:07.810Z,98639.81
2022-09-28T06:40:34.968Z,98637.81
2022-09-28T06:43:02.530Z,98635.78
2022-09-28T06:45:29.872Z,98643.81
2022-09-28T06:48:01.046Z,98632.06
2022-09-28T06:50:32.326Z,98637.84
2022-09-28T06:53:02.136Z,98638.22
2022-09-28T06:55:29.228Z,98642.63
2022-09-28T06:58:02.219Z,98637.72
2022-09-28T07:00:31.243Z,98632.41
2022-09-28T07:02:58.069Z,98635.63
2022-09-28T07:05:29.544Z,98636.09
2022-09-28T07:07:56.958Z,98634.72
2022-09-28T07:10:24.608Z,98640.50
2022-09-28T07:12:52.634Z,98636.59
2022-09-28T07:15:20.419Z,98643.63
2022-09-28T07:17:59.377Z,98638.81
2022-09-28T07:20:28.215Z,98629.13
2022-09-28T07:23:08.763Z,98623.53
2022-09-28T07:25:48.059Z,98633.47
2022-09-28T07:28:18.274Z,98629.44
2022-09-28T07:30:46.677Z,98624.81
2022-09-28T07:33:14.631Z,98616.34
2022-09-28T07:35:42.435Z,98621.37
2022-09-28T07:38:10.109Z,98619.00
2022-09-28T07:40:56.548Z,98612.69
2022-09-28T07:43:23.930Z,98613.63
2022-09-28T07:45:52.410Z,98618.00
2022-09-28T07:48:19.393Z,98616.91
2022-09-28T07:50:48.000Z,98626.44
2022-09-28T07:53:15.856Z,98630.09
2022-09-28T07:55:43.346Z,98630.69
2022-09-28T07:58:10.544Z,98629.44
2022-09-28T08:00:37.661Z,98635.97
2022-09-28T08:03:04.800Z,98650.31
2022-09-28T08:05:32.239Z,98634.47
2022-09-28T08:07:59.741Z,98639.97
2022-09-28T08:10:26.996Z,98637.06
2022-09-28T08:13:01.968Z,98629.31
2022-09-28T08:15:36.205Z,98622.37
2022-09-28T08:18:04.659Z,98612.19
2022-09-28T08:20:51.839Z,98604.38
2022-09-28T08:23:18.827Z,98599.37
2022-09-28T08:25:48.791Z,98594.88
2022-09-28T08:28:17.712Z,98590.75
2022-09-28T08:30:48.164Z,98593.03
2022-09-28T08:33:18.011Z,98598.87
2022-09-28T08:35:57.558Z,98607.69
2022-09-28T08:38:25.340Z,98607.47
2022-09-28T08:41:20.048Z,98622.97
2022-09-28T08:43:59.809Z,98627.59
2022-09-28T08:46:30.870Z,98625.19
2022-09-28T08:49:27.501Z,98626.75
2022-09-28T08:51:55.624Z,98624.28
2022-09-28T08:54:41.782Z,98634.66
2022-09-28T08:57:19.390Z,98630.31
2022-09-28T08:59:48.650Z,98619.22
2022-09-28T09:02:17.264Z,98624.09
2022-09-28T09:04:44.045Z,98617.50
2022-09-28T09:07:17.958Z,98610.31
2022-09-28T09:09:52.968Z,98607.16
2022-09-28T09:12:29.183Z,98608.34
2022-09-28T09:14:56.644Z,98602.25
2022-09-28T09:17:29.543Z,98596.56
2022-09-28T09:19:56.606Z,98598.63
2022-09-28T09:22:36.169Z,98590.03
2022-09-28T09:25:26.030Z,98599.94
2022-09-28T09:28:15.153Z,98600.41
2022-09-28T09:30:52.381Z,98604.81
2022-09-28T09:33:38.281Z,98596.50
2022-09-28T09:36:18.205Z,98597.44
2022-09-28T09:38:50.621Z,98589.09
2022-09-28T09:41:30.219Z,98598.69
2022-09-28T09:43:59.868Z,98600.06
2022-09-28T09:46:35.291Z,98603.41
2022-09-28T09:49:07.044Z,98595.28
2022-09-28T09:51:44.964Z,98603.28
2022-09-28T09:54:14.788Z,98603.09
2022-09-28T09:57:01.807Z,98599.56
2022-09-28T09:59:36.585Z,98592.59
2022-09-28T10:02:11.977Z,98595.84
2022-09-28T10:04:41.072Z,98594.03
2022-09-28T10:07:09.719Z,98596.28
2022-09-28T10:09:43.588Z,98608.88
2022-09-28T10:12:15.247Z,98603.19
2022-09-28T10:14:42.577Z,98602.19
2022-09-28T10:17:09.579Z,98605.06
2022-09-28T10:19:42.456Z,98606.91
2022-09-28T10:22:18.143Z,98603.06
2022-09-28T10:24:46.045Z,98609.00
2022-09-28T10:27:17.542Z,98599.00
2022-09-28T10:29:54.361Z,98601.00
2022-09-28T10:32:25.720Z,98600.09
2022-09-28T10:34:53.226Z,98610.44
2022-09-28T10:37:20.567Z,98602.44
2022-09-28T10:39:53.472Z,98606.13
2022-09-28T10:42:23.824Z,98604.91
2022-09-28T10:44:55.980Z,98610.09
2022-09-28T10:47:24.373Z,98599.53
2022-09-28T10:49:52.017Z,98602.97
2022-09-28T10:52:36.299Z,98602.72
2022-09-28T10:55:16.075Z,98601.34
2022-09-28T10:57:45.226Z,98604.78
2022-09-28T11:00:30.798Z,98598.56
2022-09-28T11:03:00.090Z,98583.78
2022-09-28T11:05:30.178Z,98588.31
2022-09-28T11:07:57.713Z,98591.09
2022-09-28T11:10:27.934Z,98575.19
2022-09-28T11:12:57.698Z,98584.44
2022-09-28T11:15:26.115Z,98573.00
2022-09-28T11:17:52.953Z,98564.81
2022-09-28T11:20:28.281Z,98572.09
2022-09-28T11:22:56.152Z,98557.78
2022-09-28T11:25:26.081Z,98567.84
2022-09-28T11:27:52.948Z,98557.97
2022-09-28T11:30:26.426Z,98559.81
2022-09-28T11:32:56.963Z,98549.66
2022-09-28T11:35:36.720Z,98562.44
2022-09-28T11:38:06.929Z,98558.91
2022-09-28T11:40:47.639Z,98563.19
2022-09-28T11:43:17.697Z,98559.53
2022-09-28T11:45:47.978Z,98555.53
2022-09-28T11:48:16.115Z,98558.69
2022-09-28T11:50:50.760Z,98558.81
2022-09-28T11:53:20.755Z,98561.16
2022-09-28T11:55:48.129Z,98551.44
2022-09-28T11:58:18.139Z,98539.75
2022-09-28T12:00:46.646Z,98526.62
2022-09-28T12:03:16.186Z,98537.72
2022-09-28T12:05:46.701Z,98522.84
2022-09-28T12:08:14.840Z,98526.94
2022-09-28T12:10:48.122Z,98535.53
2022-09-28T12:13:22.506Z,98529.06
2022-09-28T12:16:27.294Z,98520.75
2022-09-28T12:18:44.046Z,98522.50
2022-09-28T12:21:17.755Z,98520.75
2022-09-28T12:23:45.792Z,98519.91
2022-09-28T12:26:24.723Z,98515.63
2022-09-28T12:28:52.894Z,98514.44
2022-09-28T12:31:25.398Z,98502.34
2022-09-28T12:33:52.403Z,98499.81
2022-09-28T12:36:21.870Z,98498.34
2022-09-28T12:39:31.350Z,98497.50
2022-09-28T12:42:12.389Z,98494.63
2022-09-28T12:44:48.223Z,98510.13
2022-09-28T12:47:24.283Z,98493.53
2022-09-28T12:55:20.757Z,98497.50
2022-09-28T12:57:52.565Z,98488.75
2022-09-28T13:00:22.869Z,98485.09
2022-09-28T13:02:59.435Z,98484.50
2022-09-28T13:05:41.515Z,98489.50
2022-09-28T13:08:08.856Z,98481.00
2022-09-28T13:10:35.552Z,98480.16
2022-09-28T13:13:10.316Z,98473.47
2022-09-28T13:15:40.591Z,98483.41
2022-09-28T13:18:16.656Z,98483.28
2022-09-28T13:20:55.862Z,98490.03
2022-09-28T13:23:23.911Z,98492.66
2022-09-28T13:25:51.013Z,98494.50
2022-09-28T13:28:18.916Z,98496.28
2022-09-28T13:30:45.675Z,98487.09
2022-09-28T13:33:15.750Z,98484.66
2022-09-28T13:35:43.378Z,98494.06
2022-09-28T13:38:16.406Z,98480.81
2022-09-28T13:40:58.440Z,98484.72
2022-09-28T13:43:27.829Z,98492.00
2022-09-28T13:45:56.826Z,98492.50
2022-09-28T13:48:25.704Z,98486.25
2022-09-28T13:50:59.335Z,98484.66
2022-09-28T13:53:32.350Z,98479.63
2022-09-28T13:55:59.045Z,98487.84
2022-09-28T13:58:33.566Z,98478.09
2022-09-28T14:01:03.666Z,98492.34
2022-09-28T14:03:36.865Z,98485.25
2022-09-28T14:06:05.657Z,98485.66
2022-09-28T14:08:39.835Z,98492.87
2022-09-28T14:11:25.345Z,98487.25
2022-09-28T14:13:59.608Z,98483.41
2022-09-28T14:16:32.885Z,98481.69
2022-09-28T14:19:04.460Z,98479.06
2022-09-28T14:21:50.234Z,98475.53
2022-09-28T14:24:27.381Z,98477.53
2022-09-28T14:27:06.520Z,98477.37
2022-09-28T14:29:34.530Z,98479.88
2022-09-28T14:32:10.472Z,98473.66
2022-09-28T14:34:44.091Z,98474.16
2022-09-28T14:37:55.960Z,98469.16
2022-09-28T14:40:48.722Z,98465.56
2022-09-28T14:43:26.020Z,98465.53
2022-09-28T14:46:11.651Z,98464.97
2022-09-28T14:48:43.206Z,98466.50
2022-09-28T14:51:33.123Z,98465.94
2022-09-28T14:54:01.463Z,98457.56
2022-09-28T14:56:32.588Z,98456.53
2022-09-28T14:58:59.645Z,98454.16
2022-09-28T15:01:26.517Z,98451.94
2022-09-28T15:03:54.641Z,98449.41
2022-09-28T15:06:24.477Z,98446.56
2022-09-28T15:08:51.468Z,98445.25
2022-09-28T15:11:20.360Z,98445.56
2022-09-28T15:13:47.043Z,98433.22
2022-09-28T15:16:14.582Z,98439.00
2022-09-28T15:18:56.986Z,98433.97
2022-09-28T15:21:23.995Z,98427.81
2022-09-28T15:23:50.992Z,98429.25
2022-09-28T15:26:22.201Z,98428.38
2022-09-28T15:28:48.943Z,98429.78
2022-09-28T15:31:20.035Z,98429.22
2022-09-28T15:34:05.939Z,98424.09
2022-09-28T15:36:35.128Z,98430.94
2022-09-28T15:39:01.850Z,98431.81
2022-09-28T15:41:28.751Z,98437.09
2022-09-28T15:44:08.475Z,98433.53
2022-09-28T15:46:36.756Z,98440.69
2022-09-28T15:49:04.842Z,98443.31
2022-09-28T15:51:32.370Z,98436.66
2022-09-28T15:54:14.240Z,98442.34
2022-09-28T15:57:10.646Z,98444.16
2022-09-28T15:59:40.620Z,98439.94
2022-09-28T16:02:11.731Z,98439.13
2022-09-28T16:04:39.738Z,98438.44
2022-09-28T16:07:09.747Z,98435.75
2022-09-28T16:09:55.494Z,98444.56
2022-09-28T16:12:22.898Z,98431.06
2022-09-28T16:14:54.155Z,98425.69
2022-09-28T16:17:33.048Z,98425.31
2022-09-28T16:20:01.128Z,98420.84
2022-09-28T16:22:28.925Z,98427.25
2022-09-28T16:24:59.161Z,98422.41
2022-09-28T16:27:42.075Z,98428.38
2022-09-28T16:30:08.769Z,98429.34
2022-09-28T16:32:41.848Z,98431.06
2022-09-28T16:35:12.134Z,98437.72
2022-09-28T16:37:42.925Z,98438.25
2022-09-28T16:40:09.999Z,98443.38
2022-09-28T16:42:36.755Z,98448.25
2022-09-28T16:45:05.536Z,98447.38
2022-09-28T16:47:34.425Z,98445.25
2022-09-28T16:50:02.335Z,98442.97
2022-09-28T16:52:50.790Z,98442.03
2022-09-28T16:58:04.895Z,98450.22
2022-09-28T17:00:32.904Z,98448.13
2022-09-28T17:02:59.854Z,98454.81
2022-09-28T17:05:27.245Z,98450.03
2022-09-28T17:08:03.701Z,98446.37
2022-09-28T17:10:35.432Z,98443.66
2022-09-28T17:13:08.681Z,98449.62
2022-09-28T17:15:35.908Z,98442.75
2022-09-28T17:18:02.827Z,98441.56
2022-09-28T17:20:29.742Z,98447.03
2022-09-28T17:22:56.949Z,98448.13
2022-09-28T17:25:24.186Z,98454.88
2022-09-28T17:27:51.144Z,98446.66
2022-09-28T17:30:20.291Z,98461.56
2022-09-28T17:32:50.120Z,98455.75
2022-09-28T17:35:25.865Z,98444.03
2022-09-28T17:37:53.747Z,98450.81
2022-09-28T17:40:28.733Z,98458.47
2022-09-28T17:42:57.677Z,98454.31
2022-09-28T17:45:26.963Z,98461.31
2022-09-28T17:47:54.137Z,98460.34
2022-09-28T17:50:21.239Z,98459.59
2022-09-28T17:52:52.057Z,98465.34
2022-09-28T17:55:20.231Z,98464.56
2022-09-28T17:57:47.519Z,98469.84
2022-09-28T18:00:14.458Z,98465.94
2022-09-28T18:02:41.515Z,98472.06
2022-09-28T18:05:13.367Z,98469.44
2022-09-28T18:07:47.379Z,98480.28
2022-09-28T18:10:16.002Z,98481.28
2022-09-28T18:12:43.298Z,98473.31
2022-09-28T18:15:10.511Z,98482.78
2022-09-28T18:17:38.093Z,98482.31
2022-09-28T18:20:06.067Z,98471.50
2022-09-28T18:22:33.271Z,98480.62
2022-09-28T18:25:01.299Z,98486.22
2022-09-28T18:27:30.091Z,98483.87
2022-09-28T18:29:56.999Z,98485.91
2022-09-28T18:32:24.157Z,98488.31
2022-09-28T18:34:50.939Z,98493.16
2022-09-28T18:37:17.708Z,98489.47
2022-09-28T18:39:46.069Z,98487.88
2022-09-28T18:42:15.602Z,98493.16
2022-09-28T18:44:42.402Z,98488.12
2022-09-28T18:47:09.697Z,98492.94
2022-09-28T19:14:56.527Z,98496.41
2022-09-28T19:17:24.096Z,98496.09
2022-09-28T19:19:51.741Z,98494.44
2022-09-28T19:22:18.593Z,98499.78
2022-09-28T19:24:46.303Z,98501.66
2022-09-28T19:27:13.070Z,98501.97
2022-09-28T19:30:06.850Z,98495.06
2022-09-28T19:32:33.948Z,98490.84
2022-09-28T19:35:00.639Z,98489.34
2022-09-28T19:37:27.315Z,98498.69
2022-09-28T19:39:54.392Z,98485.28
2022-09-28T19:42:21.189Z,98493.59
2022-09-28T19:44:48.096Z,98498.22
2022-09-28T19:47:15.080Z,98495.22
2022-09-28T19:49:41.805Z,98493.16
2022-09-28T19:52:15.921Z,98487.62
2022-09-28T19:54:54.464Z,98486.81
2022-09-28T19:57:21.626Z,98487.53
2022-09-28T19:59:52.544Z,98485.72
2022-09-28T20:02:19.903Z,98479.00
2022-09-28T20:04:47.004Z,98486.88
2022-09-28T20:07:13.965Z,98481.97
2022-09-28T20:09:40.967Z,98475.16
2022-09-28T20:12:08.198Z,98478.25
2022-09-28T20:14:38.164Z,98484.97
2022-09-28T20:17:07.224Z,98477.53
2022-09-28T20:19:35.016Z,98476.84
2022-09-28T20:22:03.348Z,98477.97
2022-09-28T20:24:31.501Z,98477.53
2022-09-28T20:26:58.753Z,98474.84
2022-09-28T20:29:25.608Z,98473.47
